Time;durP1;ratioP1;P1;durP2;ratioP2;P2;SDS_P1;SDS_P2;PMS_P1;PMS_P2;Temp;Humidity;BMP_temperature;BMP_pressure;BME280_temperature;BME280_humidity;BME280_pressure;Samples;Min_cycle;Max_cycle;Signal;HPM_P1;HPM_P2
2021/07/23 00:01:01;;;;;;;7.80;5.80;;;;;;;18.40;74.55;100724.80;92878;1210;69272;-57
2021/07/23 00:03:09;;;;;;;9.70;6.20;;;;;;;18.43;74.49;100731.70;92875;1209;85161;-56
2021/07/23 00:05:17;;;;;;;7.00;6.10;;;;;;;18.39;74.58;100722.28;92883;1210;75216;-57
2021/07/23 00:07:28;;;;;;;6.90;5.80;;;;;;;18.39;74.49;100725.86;92817;1210;82723;-57
2021/07/23 00:09:35;;;;;;;11.20;6.10;;;;;;;18.41;74.62;100725.61;92854;1208;67868;-58
2021/07/23 00:11:46;;;;;;;10.00;6.30;;;;;;;18.41;74.54;100737.39;92867;1210;69492;-57
2021/07/23 00:13:57;;;;;;;7.90;6.20;;;;;;;18.34;74.59;100724.88;92849;1211;86159;-57
2021/07/23 00:16:06;;;;;;;8.90;5.80;;;;;;;18.35;74.41;100727.38;92823;1210;75167;-60
2021/07/23 00:18:13;;;;;;;7.60;5.70;;;;;;;18.34;74.69;100730.36;92838;1215;81156;-60
2021/07/23 00:20:21;;;;;;;9.60;7.30;;;;;;;18.34;74.59;100725.73;92833;1210;67041;-60
2021/07/23 00:22:32;;;;;;;7.00;5.40;;;;;;;18.34;74.56;100720.25;92874;1215;69409;-60
2021/07/23 00:24:42;;;;;;;7.20;5.70;;;;;;;18.29;74.77;100725.59;92833;1210;85123;-57
2021/07/23 00:26:54;;;;;;;8.50;6.20;;;;;;;18.28;74.78;100727.48;92902;1217;74297;-57
2021/07/23 00:29:02;;;;;;;9.10;5.50;;;;;;;18.25;74.82;100722.48;92835;1210;81621;-57
2021/07/23 00:31:09;;;;;;;7.80;5.80;;;;;;;18.25;74.74;100722.48;92857;1210;66983;-60
2021/07/23 00:33:17;;;;;;;8.00;6.80;;;;;;;18.24;74.88;100728.16;92875;1209;69249;-60
2021/07/23 00:35:27;;;;;;;9.10;6.20;;;;;;;18.21;75.04;100726.72;92865;1206;85778;-59
2021/07/23 00:37:35;;;;;;;8.10;6.20;;;;;;;18.21;75.10;100725.91;92853;1210;75102;-60
2021/07/23 00:39:44;;;;;;;10.80;6.60;;;;;;;18.19;75.05;100726.13;92836;1210;81684;-57
2021/07/23 00:41:52;;;;;;;8.50;6.00;;;;;;;18.18;75.06;100731.84;92876;1217;65940;-57
2021/07/23 00:43:59;;;;;;;9.10;5.90;;;;;;;18.13;75.29;100735.25;92880;1203;68987;-57
2021/07/23 00:46:07;;;;;;;9.80;6.40;;;;;;;18.11;75.21;100736.55;92901;1205;85416;-60
2021/07/23 00:48:15;;;;;;;8.60;6.20;;;;;;;18.11;75.10;100737.39;92869;1209;74799;-60
2021/07/23 00:50:23;;;;;;;7.80;6.40;;;;;;;18.11;75.26;100729.19;92868;1205;81256;-60
2021/07/23 00:52:34;;;;;;;8.70;5.10;;;;;;;18.09;75.33;100728.59;92863;1205;67086;-60
2021/07/23 00:54:42;;;;;;;7.80;5.90;;;;;;;18.13;75.32;100729.78;92874;1211;68758;-59
2021/07/23 00:56:50;;;;;;;6.60;5.70;;;;;;;18.11;75.48;100726.45;92838;1210;86292;-60
2021/07/23 00:58:59;;;;;;;7.50;5.90;;;;;;;18.12;75.39;100722.66;92855;1210;74243;-60
2021/07/23 01:01:07;;;;;;;8.20;6.10;;;;;;;18.11;75.47;100726.45;92841;1210;80349;-60
2021/07/23 01:03:16;;;;;;;9.10;5.80;;;;;;;18.11;75.45;100726.45;92847;1210;66292;-60
2021/07/23 01:05:24;;;;;;;7.70;5.90;;;;;;;18.11;75.59;100725.61;92865;1210;67586;-60
2021/07/23 01:07:36;;;;;;;7.60;5.90;;;;;;;18.09;75.60;100723.13;92870;1203;86198;-60
2021/07/23 01:45:43;;;;;;;9.20;6.40;;;;;;;17.95;75.91;100709.84;91783;1222;84259;-57
2021/07/23 04:06:35;;;;;;;8.80;7.60;;;;;;;18.11;77.46;100679.97;91862;1222;84782;-57
2021/07/23 04:08:43;;;;;;;10.60;8.00;;;;;;;18.16;77.37;100685.56;91948;1222;74558;-57
2021/07/23 04:10:51;;;;;;;10.50;8.00;;;;;;;18.16;77.39;100682.00;92094;1222;79924;-57
2021/07/23 04:12:58;;;;;;;10.20;8.10;;;;;;;18.22;77.33;100690.12;92221;1223;67117;-57
2021/07/23 04:15:09;;;;;;;10.40;7.40;;;;;;;18.26;77.27;100677.66;92421;1224;68886;-57
2021/07/23 04:17:17;;;;;;;10.30;7.50;;;;;;;18.29;77.27;100674.44;92473;1216;86230;-57
2021/07/23 04:19:25;;;;;;;11.50;8.10;;;;;;;18.33;77.43;100676.70;92477;1224;74175;-58
2021/07/23 04:21:33;;;;;;;10.30;7.40;;;;;;;18.36;77.29;100677.08;92433;1217;81281;-57
2021/07/23 04:23:41;;;;;;;9.60;7.30;;;;;;;18.39;77.12;100683.98;92400;1224;67918;-57
2021/07/23 04:25:49;;;;;;;8.50;6.90;;;;;;;18.43;77.11;100682.47;92419;1222;70246;-60
2021/07/23 04:27:56;;;;;;;10.60;8.40;;;;;;;18.45;77.26;100686.63;92448;1217;85410;-60
2021/07/23 04:30:05;;;;;;;9.70;7.60;;;;;;;18.49;76.86;100685.11;92464;1217;74486;-57
2021/07/23 04:32:12;;;;;;;12.20;7.80;;;;;;;18.55;76.96;100683.34;92444;1216;80853;-57
2021/07/23 04:34:20;;;;;;;11.00;8.10;;;;;;;18.60;76.82;100681.57;92427;1216;68570;-57
2021/07/23 04:36:28;;;;;;;11.20;7.90;;;;;;;18.66;77.00;100682.53;92436;1217;67482;-60
2021/07/23 04:38:36;;;;;;;12.60;8.90;;;;;;;18.70;76.87;100672.80;92494;1222;87091;-60
2021/07/23 04:40:44;;;;;;;13.90;10.10;;;;;;;18.74;76.64;100668.50;92448;1216;75071;-57
2021/07/23 04:42:51;;;;;;;11.20;8.40;;;;;;;18.75;76.76;100673.77;92482;1216;82005;-57
2021/07/23 04:44:59;;;;;;;12.80;9.20;;;;;;;18.78;76.77;100672.45;92421;1221;67966;-57
2021/07/23 04:47:07;;;;;;;12.20;8.00;;;;;;;18.84;76.70;100671.52;92468;1217;69150;-58
2021/07/23 04:49:15;;;;;;;10.90;8.70;;;;;;;18.87;76.64;100671.02;92434;1223;86128;-57
2021/07/23 04:51:22;;;;;;;10.30;8.20;;;;;;;18.92;76.67;100662.95;92455;1223;75251;-57
2021/07/23 04:53:30;;;;;;;10.40;8.20;;;;;;;18.97;76.53;100665.80;92490;1216;81915;-57
2021/07/23 04:55:37;;;;;;;10.80;8.40;;;;;;;19.03;76.58;100653.91;92416;1217;68601;-60
2021/07/23 04:57:47;;;;;;;11.60;8.50;;;;;;;19.04;76.27;100652.81;92435;1223;69121;-60
2021/07/23 04:59:55;;;;;;;16.20;8.20;;;;;;;19.10;76.47;100657.34;92502;1218;85923;-60
2021/07/23 05:02:03;;;;;;;9.90;8.10;;;;;;;19.17;76.50;100657.23;92543;1221;74624;-60
2021/07/23 05:04:11;;;;;;;12.00;9.20;;;;;;;19.24;76.36;100652.45;92529;1214;81346;-60
2021/07/23 05:06:19;;;;;;;10.50;8.60;;;;;;;19.28;76.13;100657.20;92484;1222;68180;-60
2021/07/23 05:08:27;;;;;;;12.10;9.30;;;;;;;19.35;75.90;100665.30;92574;1213;69307;-60
2021/07/23 05:10:35;;;;;;;13.70;9.70;;;;;;;19.39;75.73;100656.38;92624;1213;86418;-58
2021/07/23 05:12:43;;;;;;;17.90;9.60;;;;;;;19.46;75.68;100660.91;92661;1213;75484;-58
2021/07/23 05:14:51;;;;;;;14.00;10.00;;;;;;;19.50;75.70;100667.59;92641;1213;81986;-60
2021/07/23 05:16:58;;;;;;;14.60;10.40;;;;;;;19.56;75.71;100663.89;92547;1218;65532;-61
2021/07/23 05:19:07;;;;;;;15.10;9.80;;;;;;;19.57;75.58;100663.63;92623;1219;69788;-61
2021/07/23 05:21:15;;;;;;;12.80;9.00;;;;;;;19.59;75.68;100669.70;92653;1213;86551;-58
2021/07/23 05:23:23;;;;;;;13.50;9.40;;;;;;;19.64;75.38;100668.98;92616;1213;74766;-58
2021/07/23 05:25:31;;;;;;;13.30;9.70;;;;;;;19.67;75.36;100673.96;92641;1213;82029;-58
2021/07/23 05:27:39;;;;;;;16.40;9.50;;;;;;;19.72;74.99;100663.94;92629;1219;66937;-58
2021/07/23 05:29:47;;;;;;;11.20;9.40;;;;;;;19.78;74.94;100662.13;92628;1213;70372;-58
2021/07/23 05:31:55;;;;;;;14.70;10.00;;;;;;;19.84;75.00;100658.42;92633;1213;85713;-58
2021/07/23 05:34:02;;;;;;;10.60;9.30;;;;;;;19.84;74.83;100662.00;92635;1213;73973;-58
2021/07/23 05:36:10;;;;;;;11.90;9.40;;;;;;;19.91;74.70;100665.42;92615;1213;81883;-58
2021/07/23 05:38:19;;;;;;;14.20;9.70;;;;;;;19.99;74.85;100656.00;92622;1213;67559;-58
2021/07/23 05:40:26;;;;;;;12.70;9.80;;;;;;;20.09;74.83;100656.19;92660;1213;68322;-59
2021/07/23 05:42:35;;;;;;;11.30;9.80;;;;;;;20.16;74.32;100656.05;92638;1213;85886;-58
2021/07/23 05:44:42;;;;;;;13.70;10.50;;;;;;;20.22;74.25;100663.27;92651;1219;75155;-61
2021/07/23 05:46:50;;;;;;;12.20;9.40;;;;;;;20.29;74.20;100662.09;92615;1213;80571;-60
2021/07/23 05:48:58;;;;;;;11.80;9.50;;;;;;;20.35;74.01;100663.86;92605;1213;68437;-59
2021/07/23 05:51:06;;;;;;;12.40;10.40;;;;;;;20.41;74.08;100656.52;92647;1213;69476;-57
2021/07/23 05:53:14;;;;;;;15.30;10.10;;;;;;;20.53;73.98;100660.88;92639;1213;84441;-58
2021/07/23 05:55:22;;;;;;;14.80;11.30;;;;;;;20.64;73.92;100650.90;92661;1213;74712;-60
2021/07/23 05:57:30;;;;;;;17.20;14.70;;;;;;;20.80;73.70;100654.72;92645;1213;81080;-60
2021/07/23 05:59:37;;;;;;;22.90;17.20;;;;;;;20.85;73.67;100655.63;92645;1212;65836;-57
2021/07/23 06:01:45;;;;;;;14.90;11.60;;;;;;;20.86;73.21;100656.47;92652;1213;68768;-57
2021/07/23 06:03:54;;;;;;;12.90;10.00;;;;;;;20.89;73.28;100658.72;92633;1213;84366;-58
2021/07/23 06:06:02;;;;;;;16.70;9.50;;;;;;;20.96;73.34;100654.71;92626;1213;75461;-60
2021/07/23 06:08:10;;;;;;;11.30;10.10;;;;;;;21.08;72.75;100655.49;92641;1213;82777;-60
2021/07/23 06:10:17;;;;;;;12.10;9.80;;;;;;;21.23;72.53;100654.89;92654;1213;66965;-60
2021/07/23 06:12:25;;;;;;;14.60;9.70;;;;;;;21.31;72.50;100651.71;92610;1213;69295;-61
2021/07/23 06:14:33;;;;;;;13.10;9.20;;;;;;;21.34;72.35;100653.95;92654;1213;84977;-60
2021/07/23 06:16:44;;;;;;;12.80;9.80;;;;;;;21.54;72.08;100650.63;92664;1213;73674;-60
2021/07/23 06:18:52;;;;;;;13.10;9.10;;;;;;;21.71;71.89;100649.48;92680;1218;81415;-66
2021/07/23 06:20:59;;;;;;;14.40;10.30;;;;;;;21.82;71.88;100646.85;92733;1210;65217;-67
2021/07/23 06:23:09;;;;;;;17.70;12.70;;;;;;;21.90;71.70;100640.92;92884;1210;68053;-70
2021/07/23 06:25:17;;;;;;;18.30;14.60;;;;;;;22.12;71.76;100644.47;92894;1211;85696;-69
2021/07/23 06:34:36;;;;;;;12.60;10.90;;;;;;;23.01;69.85;100650.27;92595;1213;65821;-69
2021/07/23 06:36:44;;;;;;;15.50;11.10;;;;;;;23.08;69.00;100653.61;92656;1210;70511;-69
2021/07/23 06:38:51;;;;;;;14.90;11.20;;;;;;;23.17;69.13;100654.78;92847;1210;85884;-69
2021/07/23 06:45:36;;;;;;;15.90;11.20;;;;;;;23.62;67.94;100645.97;92702;1210;82804;-63
2021/07/23 06:47:43;;;;;;;15.00;11.50;;;;;;;23.56;67.78;100658.91;92934;1207;65663;-63
2021/07/23 06:49:52;;;;;;;11.70;10.30;;;;;;;23.57;67.38;100655.03;92839;1210;68574;-63
2021/07/23 06:52:01;;;;;;;11.80;9.50;;;;;;;23.72;67.22;100660.64;92983;1216;85810;-63
2021/07/23 06:54:08;;;;;;;11.30;9.60;;;;;;;23.92;67.06;100652.45;92966;1207;75413;-63
2021/07/23 06:56:16;;;;;;;13.00;11.40;;;;;;;24.15;66.81;100653.06;92935;1208;80590;-63
2021/07/23 06:58:24;;;;;;;13.50;9.20;;;;;;;24.56;66.37;100649.27;92958;1207;65181;-63
2021/07/23 07:00:31;;;;;;;12.00;8.90;;;;;;;25.02;65.31;100650.97;92858;1210;67691;-63
2021/07/23 07:02:39;;;;;;;15.90;10.00;;;;;;;25.37;64.83;100639.00;92940;1207;85619;-63
2021/07/23 07:04:47;;;;;;;11.50;10.30;;;;;;;25.74;64.31;100633.90;92928;1208;75438;-63
2021/07/23 07:06:57;;;;;;;10.50;9.20;;;;;;;26.02;63.86;100648.99;92961;1208;81226;-63
2021/07/23 07:09:05;;;;;;;10.90;9.30;;;;;;;26.31;63.05;100632.52;92923;1207;65542;-63
2021/07/23 07:11:12;;;;;;;11.00;8.60;;;;;;;26.51;62.24;100637.89;92969;1207;68211;-69
2021/07/23 07:13:20;;;;;;;11.90;9.60;;;;;;;26.58;61.31;100640.34;92857;1209;85184;-69
2021/07/23 07:15:28;;;;;;;12.70;10.20;;;;;;;26.59;61.29;100637.27;92935;1209;74647;-64
2021/07/23 07:17:35;;;;;;;10.40;8.60;;;;;;;26.97;60.39;100643.09;92943;1215;80352;-64
2021/07/23 07:19:43;;;;;;;11.40;8.20;;;;;;;27.34;59.94;100643.26;92950;1207;65769;-64
2021/07/23 07:21:51;;;;;;;12.90;7.80;;;;;;;27.65;57.86;100632.66;92958;1208;68577;-64
2021/07/23 07:24:00;;;;;;;8.60;7.70;;;;;;;27.93;57.25;100638.14;92953;1205;86795;-63
2021/07/23 07:26:08;;;;;;;9.30;7.40;;;;;;;28.08;57.19;100642.67;92972;1208;73582;-64
2021/07/23 07:28:17;;;;;;;9.20;7.20;;;;;;;28.83;56.55;100628.73;92866;1204;81605;-63
2021/07/23 07:37:49;;;;;;;7.60;6.80;;;;;;;30.89;51.03;100631.85;92212;1218;87365;-64
2021/07/23 07:39:58;;;;;;;8.80;6.60;;;;;;;31.05;48.59;100630.34;92426;1215;74552;-63
2021/07/23 07:42:06;;;;;;;8.00;6.50;;;;;;;31.25;49.07;100624.21;92450;1216;80363;-62
2021/07/23 07:44:14;;;;;;;7.00;6.30;;;;;;;31.45;47.93;100632.00;92443;1215;66006;-63
2021/07/23 07:46:22;;;;;;;7.40;6.70;;;;;;;31.75;46.70;100627.55;92476;1215;68140;-62
2021/07/23 07:48:29;;;;;;;9.40;6.80;;;;;;;32.19;46.59;100625.69;92418;1222;84722;-62
2021/07/23 07:50:37;;;;;;;7.60;6.90;;;;;;;32.52;45.53;100624.05;92477;1216;74547;-66
2021/07/23 07:52:48;;;;;;;7.20;6.20;;;;;;;33.08;44.38;100621.03;92436;1216;81899;-66
2021/07/23 07:54:55;;;;;;;7.00;6.20;;;;;;;33.59;43.55;100619.22;92482;1216;66796;-62
2021/07/23 07:57:10;;;;;;;7.20;6.00;;;;;;;33.99;42.35;100614.02;92466;1213;69334;-62
2021/07/23 07:59:19;;;;;;;6.70;6.00;;;;;;;34.31;41.36;100611.31;92473;1223;84329;-62
2021/07/23 08:01:27;;;;;;;7.20;6.40;;;;;;;34.53;40.61;100612.14;92457;1221;74470;-66
2021/07/23 08:03:35;;;;;;;8.40;6.20;;;;;;;34.36;40.30;100613.91;92407;1223;80665;-66
2021/07/23 08:05:42;;;;;;;6.50;5.80;;;;;;;34.79;39.95;100612.73;92416;1220;67038;-62
2021/07/23 08:07:50;;;;;;;6.70;6.10;;;;;;;35.13;39.29;100609.58;92435;1222;69147;-62
2021/07/23 08:10:01;;;;;;;6.30;5.50;;;;;;;35.37;38.51;100611.59;92412;1222;86013;-60
2021/07/23 08:12:12;;;;;;;6.00;5.40;;;;;;;35.19;38.48;100618.61;92449;1216;74878;-60
2021/07/23 08:14:21;;;;;;;6.40;5.80;;;;;;;35.30;38.48;100614.97;92427;1215;82682;-61
2021/07/23 08:16:30;;;;;;;7.10;6.20;;;;;;;35.59;37.38;100619.59;92451;1215;67616;-67
2021/07/23 08:18:37;;;;;;;6.40;5.80;;;;;;;35.71;37.44;100619.58;92472;1222;69185;-67
2021/07/23 08:20:50;;;;;;;6.20;5.50;;;;;;;35.99;36.32;100614.87;92561;1213;86426;-60
2021/07/23 08:22:56;;;;;;;;;;;;;;;36.08;35.45;100617.58;92685;1212;75613;-60
2021/07/23 08:25:04;;;;;;;8.70;5.70;;;;;;;36.45;35.36;100618.30;92600;1213;81519;-61
2021/07/23 08:27:13;;;;;;;6.40;5.70;;;;;;;36.03;33.65;100615.02;92561;1218;65962;-60
2021/07/23 08:29:22;;;;;;;6.30;5.70;;;;;;;36.01;35.21;100625.78;92687;1208;68226;-60
2021/07/23 08:31:30;;;;;;;6.90;6.10;;;;;;;36.27;34.74;100631.84;92729;1210;86415;-60
2021/07/23 08:33:37;;;;;;;6.30;5.70;;;;;;;36.41;33.26;100621.01;92746;1208;75384;-60
2021/07/23 08:35:45;;;;;;;6.70;5.60;;;;;;;36.25;34.23;100622.94;92693;1210;81618;-59
2021/07/23 08:37:53;;;;;;;6.30;5.60;;;;;;;36.03;32.95;100620.64;92691;1203;67281;-59
2021/07/23 08:40:00;;;;;;;6.40;5.80;;;;;;;36.00;33.13;100610.06;92727;1210;69145;-67
2021/07/23 08:42:29;;;;;;;7.30;6.20;;;;;;;36.12;33.97;100617.70;92693;1208;87192;-67
2021/07/23 08:44:37;;;;;;;9.10;6.00;;;;;;;35.69;33.60;100613.49;92734;1207;75242;-67
2021/07/23 08:46:45;;;;;;;7.80;6.40;;;;;;;36.00;34.22;100615.69;92723;1208;81689;-67
2021/07/23 08:48:55;;;;;;;7.30;6.50;;;;;;;35.99;34.02;100614.04;92708;1204;66295;-66
2021/07/23 08:51:03;;;;;;;7.20;6.50;;;;;;;35.92;34.40;100614.66;92733;1210;69319;-66
2021/07/23 08:53:11;;;;;;;7.40;6.20;;;;;;;36.14;33.40;100607.73;92711;1211;85962;-66
2021/07/23 08:55:23;;;;;;;6.90;6.20;;;;;;;35.89;34.00;100622.97;92739;1210;75056;-66
2021/07/23 08:57:32;;;;;;;7.10;6.40;;;;;;;35.68;34.17;100605.42;92721;1210;81020;-69
2021/07/23 08:59:39;;;;;;;7.80;6.80;;;;;;;35.90;33.83;100607.75;92704;1210;66804;-58
2021/07/23 09:02:05;;;;;;;7.70;7.00;;;;;;;35.78;33.52;100605.77;92706;1210;68513;-60
2021/07/23 09:04:30;;;;;;;7.00;6.30;;;;;;;35.77;34.32;100606.09;92768;1208;86234;-60
2021/07/23 09:06:38;;;;;;;7.60;6.90;;;;;;;35.82;33.59;100600.27;92720;1210;73917;-68
2021/07/23 09:08:54;;;;;;;8.00;7.20;;;;;;;35.52;34.29;100602.45;92691;1210;80224;-68
2021/07/23 09:11:08;;;;;;;7.00;6.30;;;;;;;35.14;34.65;100591.54;92732;1210;66922;-66
2021/07/23 09:13:24;;;;;;;7.20;6.50;;;;;;;34.43;34.88;100592.90;92814;1210;69881;-65
2021/07/23 09:15:41;;;;;;;7.40;6.70;;;;;;;33.86;34.40;100593.50;92925;1205;84730;-63
2021/07/23 09:17:49;;;;;;;7.50;6.60;;;;;;;33.03;35.03;100595.98;92947;1216;73761;-63
2021/07/23 09:20:07;;;;;;;8.40;6.50;;;;;;;33.14;36.63;100600.09;92874;1210;81321;-65
2021/07/23 09:22:15;;;;;;;9.80;7.00;;;;;;;32.48;35.01;100604.30;92963;1207;65349;-64
2021/07/23 09:24:55;;;;;;;7.80;7.10;;;;;;;32.01;36.36;100600.50;92968;1212;68996;-65
2021/07/23 09:27:03;;;;;;;10.20;6.60;;;;;;;31.19;37.21;100599.53;92940;1216;86273;-63
2021/07/23 09:29:12;;;;;;;7.00;6.30;;;;;;;30.62;37.99;100602.14;92973;1207;74259;-63
2021/07/23 09:31:28;;;;;;;7.10;6.40;;;;;;;30.20;38.26;100606.20;92910;1209;80148;-65
2021/07/23 09:33:40;;;;;;;8.00;6.50;;;;;;;29.64;39.89;100603.80;92901;1207;66062;-64
2021/07/23 09:35:56;;;;;;;7.20;6.50;;;;;;;29.33;40.90;100605.58;92933;1213;67560;-61
2021/07/23 09:38:10;;;;;;;8.00;6.70;;;;;;;29.06;41.82;100603.53;92838;1210;84616;-61
2021/07/23 09:40:18;;;;;;;8.50;6.40;;;;;;;28.85;41.59;100604.22;92950;1208;75420;-61
2021/07/23 09:42:27;;;;;;;10.40;6.80;;;;;;;28.54;43.12;100601.93;92952;1208;80839;-62
2021/07/23 09:44:35;;;;;;;8.40;6.30;;;;;;;28.34;43.50;100601.45;92904;1205;66848;-63
2021/07/23 09:46:47;;;;;;;7.60;6.90;;;;;;;28.17;43.64;100604.76;92943;1215;69327;-65
2021/07/23 09:48:56;;;;;;;7.40;6.70;;;;;;;28.06;43.70;100603.25;92943;1210;86853;-65
2021/07/23 09:51:06;;;;;;;7.70;6.90;;;;;;;27.96;44.18;100606.16;92982;1207;74540;-65
2021/07/23 09:53:20;;;;;;;8.40;6.40;;;;;;;27.80;44.37;100601.95;92867;1210;81085;-65
2021/07/23 09:55:28;;;;;;;9.80;7.00;;;;;;;27.49;44.36;100598.73;92921;1212;65627;-64
2021/07/23 09:57:41;;;;;;;7.10;6.40;;;;;;;27.25;45.05;100601.45;92941;1210;68099;-65
2021/07/23 10:00:02;;;;;;;8.10;6.70;;;;;;;27.11;45.05;100600.53;92937;1207;85055;-63
2021/07/23 10:02:19;;;;;;;8.10;6.50;;;;;;;26.91;45.09;100600.72;92938;1207;75324;-62
2021/07/23 10:04:37;;;;;;;7.60;6.80;;;;;;;26.71;45.27;100603.64;92855;1210;81082;-64
2021/07/23 10:06:53;;;;;;;8.20;6.40;;;;;;;26.47;46.53;100602.75;92925;1211;66714;-65
2021/07/23 10:09:09;;;;;;;7.60;6.60;;;;;;;26.34;46.41;100591.19;92958;1210;69799;-64
2021/07/23 10:11:19;;;;;;;11.00;7.20;;;;;;;26.19;47.39;100587.72;92974;1215;85524;-66
2021/07/23 10:13:29;;;;;;;7.90;6.40;;;;;;;26.13;47.37;100592.47;92934;1210;73718;-66
2021/07/23 10:15:39;;;;;;;7.20;6.40;;;;;;;26.12;47.63;100578.89;92965;1207;81360;-63
2021/07/23 10:17:50;;;;;;;8.50;6.80;;;;;;;26.07;48.80;100579.73;92932;1215;65954;-61
2021/07/23 10:19:58;;;;;;;8.30;7.10;;;;;;;26.04;47.88;100580.30;92961;1206;69106;-64
2021/07/23 10:22:07;;;;;;;7.90;6.60;;;;;;;26.06;47.97;100575.33;92960;1212;85080;-65
2021/07/23 10:24:16;;;;;;;7.70;6.80;;;;;;;26.03;47.87;100578.66;92889;1205;74915;-65
2021/07/23 10:26:30;;;;;;;7.40;6.70;;;;;;;26.14;47.66;100580.28;92989;1212;80468;-62
2021/07/23 10:28:57;;;;;;;7.50;6.70;;;;;;;26.12;47.88;100576.92;92953;1207;65984;-62
2021/07/23 10:31:44;;;;;;;8.60;6.70;;;;;;;26.24;48.38;100582.97;92974;1207;69728;-65
2021/07/23 10:33:56;;;;;;;9.30;6.50;;;;;;;26.25;49.00;100575.49;92953;1207;85270;-65
2021/07/23 10:36:38;;;;;;;8.60;7.40;;;;;;;26.46;49.39;100570.61;92938;1210;75564;-65
2021/07/23 10:38:45;;;;;;;9.10;7.40;;;;;;;26.48;47.67;100571.97;92934;1215;80957;-65
2021/07/23 10:41:13;;;;;;;8.10;7.20;;;;;;;26.51;47.27;100570.59;92955;1207;65882;-63
2021/07/23 10:43:40;;;;;;;9.10;6.40;;;;;;;26.61;47.73;100567.72;92935;1216;68309;-63
2021/07/23 10:45:48;;;;;;;7.50;6.70;;;;;;;26.69;47.28;100569.86;92941;1208;84751;-65
2021/07/23 10:47:58;;;;;;;9.80;7.30;;;;;;;26.60;47.73;100566.05;92967;1210;74776;-64
2021/07/23 10:50:13;;;;;;;9.10;7.10;;;;;;;26.60;48.07;100561.34;92952;1204;80322;-65
2021/07/23 10:52:40;;;;;;;10.30;7.50;;;;;;;26.61;48.11;100568.55;92908;1207;67212;-65
2021/07/23 10:55:24;;;;;;;8.50;7.70;;;;;;;26.60;48.17;100566.88;92904;1216;68199;-62
2021/07/23 10:57:33;;;;;;;8.30;6.50;;;;;;;26.44;48.10;100564.53;92939;1210;84462;-63
2021/07/23 10:59:59;;;;;;;8.10;7.20;;;;;;;26.35;48.54;100556.84;92864;1210;75969;-63
2021/07/23 11:02:07;;;;;;;7.90;7.10;;;;;;;26.25;49.40;100553.34;92913;1207;82038;-63
2021/07/23 11:04:22;;;;;;;7.50;6.40;;;;;;;26.17;48.80;100554.78;92922;1216;65852;-63
2021/07/23 11:06:38;;;;;;;8.20;6.70;;;;;;;26.13;49.28;100550.92;92948;1207;68788;-65
2021/07/23 11:08:50;;;;;;;7.60;6.50;;;;;;;26.09;48.73;100554.53;92955;1207;85289;-64
2021/07/23 11:10:58;;;;;;;7.70;6.10;;;;;;;25.97;48.53;100543.81;92987;1207;74497;-63
2021/07/23 11:13:13;;;;;;;7.60;5.90;;;;;;;25.82;48.77;100545.86;92935;1206;81518;-62
2021/07/23 11:15:25;;;;;;;8.80;5.80;;;;;;;25.67;50.72;100547.60;92918;1207;65028;-65
2021/07/23 11:17:46;;;;;;;7.10;6.40;;;;;;;25.62;51.03;100547.63;92945;1211;69636;-64
2021/07/23 11:19:58;;;;;;;7.30;5.90;;;;;;;25.50;51.53;100543.53;92865;1210;85720;-64
2021/07/23 11:22:11;;;;;;;7.60;6.80;;;;;;;25.33;50.96;100541.08;92958;1216;75592;-65
2021/07/23 11:24:19;;;;;;;7.10;6.30;;;;;;;25.21;52.12;100549.73;92915;1216;82504;-65
2021/07/23 11:26:27;;;;;;;8.00;6.00;;;;;;;24.98;52.35;100549.50;92913;1208;65392;-64
2021/07/23 11:28:50;;;;;;;7.40;5.90;;;;;;;24.83;53.00;100547.59;92939;1212;69649;-65
2021/07/23 11:31:01;;;;;;;7.30;6.60;;;;;;;24.62;53.88;100548.71;92934;1207;84899;-63
2021/07/23 11:33:10;;;;;;;7.10;6.40;;;;;;;24.43;54.51;100548.45;92868;1210;75067;-63
2021/07/23 11:35:17;;;;;;;6.90;5.60;;;;;;;24.34;54.79;100543.75;92913;1208;81733;-63
2021/07/23 11:37:26;;;;;;;8.50;5.90;;;;;;;24.24;55.25;100544.59;92923;1212;68058;-62
2021/07/23 11:39:48;;;;;;;6.50;5.50;;;;;;;24.10;55.13;100554.52;92941;1208;68933;-64
2021/07/23 11:42:05;;;;;;;6.10;5.40;;;;;;;24.06;54.77;100545.91;92939;1208;86529;-65
2021/07/23 11:44:16;;;;;;;7.20;5.60;;;;;;;24.04;54.41;100548.13;92882;1210;75557;-65
2021/07/23 11:46:23;;;;;;;7.30;5.30;;;;;;;23.98;54.42;100546.45;92960;1207;81542;-63
2021/07/23 11:48:31;;;;;;;6.40;5.80;;;;;;;23.90;54.78;100546.16;92855;1210;65506;-63
2021/07/23 11:50:50;;;;;;;7.90;6.10;;;;;;;23.87;54.76;100542.02;92889;1210;68730;-63
2021/07/23 11:53:07;;;;;;;6.60;5.30;;;;;;;23.74;55.17;100534.28;92929;1212;86172;-63
2021/07/23 11:55:16;;;;;;;6.40;5.10;;;;;;;23.73;55.74;100540.91;92939;1207;74484;-65
2021/07/23 11:57:24;;;;;;;6.90;5.60;;;;;;;23.64;56.03;100538.95;92915;1215;81231;-65
2021/07/23 11:59:42;;;;;;;7.70;5.60;;;;;;;23.60;55.89;100538.65;92924;1207;67259;-64
2021/07/23 12:01:51;;;;;;;9.20;5.60;;;;;;;23.51;56.38;100534.78;92891;1210;68028;-65
2021/07/23 12:04:01;;;;;;;8.20;5.80;;;;;;;23.56;56.42;100537.55;92907;1215;87258;-64
2021/07/23 12:06:14;;;;;;;7.90;5.40;;;;;;;23.61;56.46;100539.48;92926;1208;77651;-65
2021/07/23 12:08:25;;;;;;;7.30;5.50;;;;;;;23.57;56.18;100538.39;92944;1211;81292;-64
2021/07/23 12:10:37;;;;;;;6.90;5.90;;;;;;;23.54;56.60;100545.25;92889;1216;65539;-64
2021/07/23 12:12:45;;;;;;;10.90;6.20;;;;;;;23.60;56.64;100540.58;92925;1212;69902;-64
2021/07/23 12:15:01;;;;;;;7.10;5.20;;;;;;;23.62;57.24;100541.98;92952;1210;87136;-62
2021/07/23 12:17:09;;;;;;;8.00;6.00;;;;;;;23.68;56.83;100540.88;92936;1212;73984;-63
2021/07/23 12:19:23;;;;;;;9.80;5.80;;;;;;;23.72;56.97;100535.66;92922;1208;81687;-63
2021/07/23 12:21:34;;;;;;;6.60;6.00;;;;;;;23.73;57.54;100535.40;92928;1210;67182;-66
2021/07/23 12:23:42;;;;;;;7.80;6.20;;;;;;;23.81;57.14;100536.79;92940;1211;67559;-65
2021/07/23 12:25:53;;;;;;;7.00;5.90;;;;;;;23.82;56.91;100541.19;92913;1215;89076;-64
2021/07/23 12:28:14;;;;;;;8.50;6.30;;;;;;;23.86;56.57;100539.55;92916;1207;75126;-63
2021/07/23 12:30:36;;;;;;;6.90;6.00;;;;;;;23.91;56.75;100543.15;92931;1216;79782;-65
2021/07/23 12:32:44;;;;;;;8.30;6.10;;;;;;;23.94;55.98;100545.36;92898;1208;67512;-65
2021/07/23 12:35:00;;;;;;;7.20;6.20;;;;;;;24.05;56.15;100540.68;92866;1210;67917;-62
2021/07/23 12:37:18;;;;;;;8.60;6.20;;;;;;;24.03;55.03;100542.89;92970;1216;84448;-64
2021/07/23 12:39:27;;;;;;;8.00;6.10;;;;;;;24.11;55.61;100541.55;92983;1208;74706;-63
2021/07/23 12:41:36;;;;;;;7.40;6.40;;;;;;;24.24;55.26;100539.07;92918;1207;80018;-65
2021/07/23 12:44:02;;;;;;;7.30;6.40;;;;;;;24.32;54.97;100540.45;92912;1208;66473;-66
2021/07/23 12:46:32;;;;;;;8.30;6.60;;;;;;;24.40;55.06;100540.72;92939;1216;68335;-68
2021/07/23 12:48:40;;;;;;;10.00;7.40;;;;;;;24.41;54.87;100536.86;92966;1208;85737;-68
2021/07/23 12:51:02;;;;;;;7.70;6.90;;;;;;;24.46;54.64;100531.33;92953;1208;74461;-64
2021/07/23 12:53:11;;;;;;;7.90;6.50;;;;;;;24.60;55.04;100531.59;92935;1216;81452;-64
2021/07/23 12:55:23;;;;;;;9.30;7.10;;;;;;;24.74;55.38;100531.84;92967;1208;65271;-64
2021/07/23 12:57:36;;;;;;;9.70;7.10;;;;;;;24.81;54.89;100521.34;92981;1207;68276;-68
2021/07/23 12:59:45;;;;;;;9.70;7.20;;;;;;;24.92;54.67;100534.87;92979;1207;86129;-64
2021/07/23 13:01:53;;;;;;;11.50;7.30;;;;;;;24.84;53.68;100527.16;92879;1210;75618;-63
2021/07/23 13:04:01;;;;;;;8.80;6.80;;;;;;;24.88;53.71;100519.97;92941;1211;81001;-64
2021/07/23 13:06:17;;;;;;;8.00;7.20;;;;;;;24.94;53.27;100521.59;92960;1205;67199;-64
2021/07/23 13:08:24;;;;;;;10.10;7.10;;;;;;;25.03;53.39;100530.97;92951;1212;67741;-63
2021/07/23 13:10:34;;;;;;;10.00;6.90;;;;;;;25.18;53.26;100519.88;92940;1211;84797;-66
2021/07/23 13:12:42;;;;;;;10.10;7.10;;;;;;;25.23;53.40;100521.78;92936;1209;74140;-69
2021/07/23 13:14:54;;;;;;;9.50;7.50;;;;;;;25.24;53.09;100527.02;92948;1215;81200;-69
2021/07/23 13:17:02;;;;;;;8.10;6.60;;;;;;;25.35;53.13;100527.82;92949;1212;65230;-69
2021/07/23 13:19:10;;;;;;;9.20;7.20;;;;;;;25.43;52.91;100520.86;92940;1207;68380;-67